createdAt,value
2023-08-30T00:02:00.202Z,98031.38
2023-08-30T00:04:45.867Z,98037.41
2023-08-30T00:07:31.486Z,98050.06
2023-08-30T00:10:17.262Z,98057.66
2023-08-30T00:13:02.654Z,98059.66
2023-08-30T00:15:48.263Z,98058.09
2023-08-30T00:18:33.805Z,98054.53
2023-08-30T00:21:19.216Z,98056.56
2023-08-30T00:24:04.889Z,98059.03
2023-08-30T00:26:50.243Z,98059.78
2023-08-30T00:29:35.763Z,98063.81
2023-08-30T00:32:21.162Z,98057.50
2023-08-30T00:35:06.981Z,98064.59
2023-08-30T00:37:52.494Z,98062.25
2023-08-30T00:40:41.064Z,98056.69
2023-08-30T00:43:26.495Z,98068.63
2023-08-30T00:46:12.506Z,98056.34
2023-08-30T00:48:59.900Z,98064.25
2023-08-30T00:51:45.477Z,98063.94
2023-08-30T00:54:31.004Z,98066.72
2023-08-30T00:57:17.281Z,98066.72
2023-08-30T01:00:05.040Z,98071.94
2023-08-30T01:02:50.528Z,98069.97
2023-08-30T01:05:35.821Z,98071.94
2023-08-30T01:08:21.498Z,98071.94
2023-08-30T01:11:14.688Z,98071.94
2023-08-30T01:14:13.373Z,98070.41
2023-08-30T01:16:59.756Z,98070.41
2023-08-30T01:20:00.049Z,98066.06
2023-08-30T01:22:49.167Z,98062.97
2023-08-30T01:25:49.124Z,98060.19
2023-08-30T01:28:36.751Z,98059.91
2023-08-30T01:31:25.951Z,98061.44
2023-08-30T01:34:11.888Z,98065.47
2023-08-30T01:36:58.097Z,98046.75
2023-08-30T01:39:44.280Z,98050.75
2023-08-30T01:42:31.001Z,98048.78
2023-08-30T01:45:17.771Z,98056.31
2023-08-30T01:48:04.739Z,98043.66
2023-08-30T01:50:50.597Z,98044.41
2023-08-30T01:53:36.945Z,98037.31
2023-08-30T01:56:22.380Z,98038.09
2023-08-30T01:59:07.925Z,98031.75
2023-08-30T02:01:54.306Z,98028.66
2023-08-30T02:04:40.578Z,98032.66
2023-08-30T02:07:36.925Z,98033.44
2023-08-30T02:10:29.161Z,98033.44
2023-08-30T02:13:15.153Z,98024.31
2023-08-30T02:16:03.283Z,98031.13
2023-08-30T02:18:50.687Z,98024.00
2023-08-30T02:21:36.189Z,98027.25
2023-08-30T02:24:21.649Z,98014.88
2023-08-30T02:27:06.915Z,98022.47
2023-08-30T02:29:52.239Z,98035.13
2023-08-30T02:32:37.555Z,98054.91
2023-08-30T02:35:23.390Z,98052.59
2023-08-30T02:38:09.063Z,98050.28
2023-08-30T02:40:54.620Z,98061.41
2023-08-30T02:43:40.141Z,98056.16
2023-08-30T02:46:25.454Z,98061.09
2023-08-30T02:49:12.434Z,98055.53
2023-08-30T02:51:57.686Z,98048.72
2023-08-30T02:54:43.184Z,98046.41
2023-08-30T02:57:28.632Z,98040.84
2023-08-30T03:00:14.894Z,98046.41
2023-08-30T03:03:00.754Z,98043.75
2023-08-30T03:05:46.756Z,98046.84
2023-08-30T03:08:33.909Z,98039.44
2023-08-30T03:11:19.752Z,98054.09
2023-08-30T03:14:10.404Z,98066.44
2023-08-30T03:16:57.424Z,98051.47
2023-08-30T03:19:44.776Z,98052.69
2023-08-30T03:22:30.553Z,98063.81
2023-08-30T03:25:16.074Z,98065.84
2023-08-30T03:28:01.425Z,98057.94
2023-08-30T03:30:46.821Z,98053.91
2023-08-30T03:33:32.129Z,98055.94
2023-08-30T03:36:19.472Z,98062.25
2023-08-30T03:39:04.947Z,98060.41
2023-08-30T03:41:50.671Z,98067.06
2023-08-30T03:44:39.045Z,98061.50
2023-08-30T03:47:25.913Z,98068.63
2023-08-30T03:50:11.321Z,98059.81
2023-08-30T03:52:57.115Z,98062.59
2023-08-30T03:55:43.035Z,98065.84
2023-08-30T03:58:28.431Z,98062.59
2023-08-30T04:01:14.315Z,98058.09
2023-08-30T04:04:00.154Z,98059.22
2023-08-30T04:06:46.087Z,98063.09
2023-08-30T04:09:31.329Z,98057.38
2023-08-30T04:12:16.803Z,98060.47
2023-08-30T04:15:03.396Z,98057.69
2023-08-30T04:17:48.753Z,98052.44
2023-08-30T04:20:34.703Z,98042.88
2023-08-30T04:23:20.134Z,98048.44
2023-08-30T04:26:05.360Z,98039.63
2023-08-30T04:28:50.837Z,98041.19
2023-08-30T04:31:36.666Z,98042.28
2023-08-30T04:34:23.773Z,98048.16
2023-08-30T04:37:09.604Z,98043.81
2023-08-30T04:39:55.071Z,98042.59
2023-08-30T04:42:41.364Z,98046.91
2023-08-30T04:45:26.930Z,98050.34
2023-08-30T04:48:12.629Z,98055.56
2023-08-30T04:51:00.534Z,98053.91
2023-08-30T04:53:45.611Z,98055.78
2023-08-30T04:56:31.400Z,98065.22
2023-08-30T04:59:17.365Z,98062.75
2023-08-30T05:02:05.817Z,98075.13
2023-08-30T05:04:55.594Z,98082.56
2023-08-30T05:07:41.486Z,98083.19
2023-08-30T05:10:26.803Z,98082.25
2023-08-30T05:13:13.146Z,98091.69
2023-08-30T05:15:58.661Z,98081.50
2023-08-30T05:18:44.106Z,98079.03
2023-08-30T05:21:29.761Z,98086.75
2023-08-30T05:24:15.357Z,98080.75
2023-08-30T05:27:00.659Z,98080.28
2023-08-30T05:29:49.139Z,98082.59
2023-08-30T05:32:35.399Z,98077.34
2023-08-30T05:35:40.076Z,98073.63
2023-08-30T05:38:25.747Z,98069.16
2023-08-30T05:41:21.092Z,98070.25
2023-08-30T05:44:08.511Z,98064.66
2023-08-30T05:46:54.188Z,98068.09
2023-08-30T05:49:39.514Z,98068.41
2023-08-30T05:52:26.824Z,98068.25
2023-08-30T05:55:12.159Z,98071.38
2023-08-30T05:57:57.594Z,98067.31
2023-08-30T06:00:43.105Z,98068.41
2023-08-30T06:03:28.773Z,98055.13
2023-08-30T06:06:14.852Z,98060.22
2023-08-30T06:09:00.603Z,98058.97
2023-08-30T06:11:45.956Z,98058.53
2023-08-30T06:14:31.667Z,98062.84
2023-08-30T06:17:17.672Z,98062.84
2023-08-30T06:20:04.808Z,98058.06
2023-08-30T06:22:50.620Z,98057.00
2023-08-30T06:25:35.826Z,98059.59
2023-08-30T06:28:21.538Z,98065.94
2023-08-30T06:31:06.916Z,98067.50
2023-08-30T06:33:52.161Z,98063.78
2023-08-30T06:36:37.574Z,98061.00
2023-08-30T06:39:23.655Z,98066.25
2023-08-30T06:42:09.225Z,98064.28
2023-08-30T06:44:54.516Z,98065.03
2023-08-30T06:47:39.916Z,98067.50
2023-08-30T06:50:25.169Z,98070.75
2023-08-30T06:53:10.707Z,98068.41
2023-08-30T06:56:00.431Z,98072.00
2023-08-30T06:58:45.921Z,98074.78
2023-08-30T07:01:32.415Z,98070.91
2023-08-30T07:04:19.526Z,98069.34
2023-08-30T07:07:05.078Z,98071.81
2023-08-30T07:09:51.448Z,98070.59
2023-08-30T07:12:36.583Z,98074.91
2023-08-30T07:15:22.675Z,98066.25
2023-08-30T07:18:09.989Z,98066.25
2023-08-30T07:20:56.729Z,98065.03
2023-08-30T07:23:41.873Z,98062.25
2023-08-30T07:26:27.573Z,98070.91
2023-08-30T07:29:13.044Z,98071.81
2023-08-30T07:31:58.513Z,98068.59
2023-08-30T07:34:43.819Z,98072.28
2023-08-30T07:37:29.165Z,98081.09
2023-08-30T07:40:14.660Z,98081.09
2023-08-30T07:43:00.325Z,98076.63
2023-08-30T07:45:46.743Z,98091.00
2023-08-30T07:48:32.419Z,98080.19
2023-08-30T07:51:17.765Z,98089.47
2023-08-30T07:54:05.638Z,98088.22
2023-08-30T07:56:51.362Z,98081.88
2023-08-30T07:59:40.129Z,98081.44
2023-08-30T08:02:25.973Z,98088.06
2023-08-30T08:05:11.217Z,98084.03
2023-08-30T08:08:01.776Z,98082.34
2023-08-30T08:10:47.239Z,98085.13
2023-08-30T08:13:32.672Z,98086.69
2023-08-30T08:16:18.058Z,98084.97
2023-08-30T08:19:04.004Z,98080.19
2023-08-30T08:21:50.625Z,98080.97
2023-08-30T08:24:37.299Z,98079.28
2023-08-30T08:27:22.727Z,98075.25
2023-08-30T08:30:08.669Z,98074.16
2023-08-30T08:32:54.246Z,98081.25
2023-08-30T08:35:39.464Z,98083.91
2023-08-30T08:38:25.523Z,98081.75
2023-08-30T08:41:15.370Z,98073.06
2023-08-30T08:44:01.539Z,98059.78
2023-08-30T08:46:47.618Z,98059.59
2023-08-30T08:49:33.113Z,98054.81
2023-08-30T08:52:29.567Z,98050.03
2023-08-30T08:55:18.663Z,98053.59
2023-08-30T08:58:05.654Z,98051.91
2023-08-30T09:00:51.235Z,98049.88
2023-08-30T09:03:37.368Z,98054.34
2023-08-30T09:06:24.279Z,98053.28
2023-08-30T09:09:10.348Z,98059.16
2023-08-30T09:11:56.237Z,98059.91
2023-08-30T09:14:41.588Z,98047.91
2023-08-30T09:17:40.184Z,98054.56
2023-08-30T09:20:25.869Z,98048.50
2023-08-30T09:23:21.979Z,98050.38
2023-08-30T09:26:07.732Z,98043.09
2023-08-30T09:28:53.628Z,98043.09
2023-08-30T09:31:42.915Z,98045.88
2023-08-30T09:34:28.589Z,98044.31
2023-08-30T09:37:23.729Z,98041.84
2023-08-30T09:40:09.492Z,98043.09
2023-08-30T09:43:07.414Z,98050.69
2023-08-30T09:45:59.158Z,98044.31
2023-08-30T09:48:45.282Z,98048.66
2023-08-30T09:51:31.315Z,98048.97
2023-08-30T09:57:13.600Z,98052.06
2023-08-30T10:00:01.120Z,98052.53
2023-08-30T10:03:03.673Z,98057.78
2023-08-30T10:05:53.029Z,98051.13
2023-08-30T10:08:40.894Z,98044.78
2023-08-30T10:11:27.979Z,98052.06
2023-08-30T10:14:14.262Z,98047.25
2023-08-30T10:17:04.714Z,98052.22
2023-08-30T10:19:51.597Z,98041.53
2023-08-30T10:22:38.397Z,98048.97
2023-08-30T10:25:28.955Z,98044.47
2023-08-30T10:28:14.596Z,98045.56
2023-08-30T10:31:00.342Z,98052.69
2023-08-30T10:33:54.528Z,98054.22
2023-08-30T10:36:39.563Z,98049.28
2023-08-30T10:39:35.368Z,98048.97
2023-08-30T10:42:24.694Z,98046.94
2023-08-30T10:45:14.273Z,98041.22
2023-08-30T10:48:00.952Z,98050.03
2023-08-30T10:50:46.730Z,98053.13
2023-08-30T10:53:32.253Z,98044.31
2023-08-30T10:56:18.024Z,98050.81
2023-08-30T10:59:04.029Z,98045.84
2023-08-30T11:01:52.201Z,98042.13
2023-08-30T11:04:41.573Z,98049.59
2023-08-30T11:07:27.265Z,98036.41
2023-08-30T11:10:13.265Z,98037.03
2023-08-30T11:12:59.002Z,98035.66
2023-08-30T11:15:44.446Z,98034.69
2023-08-30T11:18:29.856Z,98033.16
2023-08-30T11:21:15.157Z,98033.00
2023-08-30T11:24:00.775Z,98029.28
2023-08-30T11:26:47.262Z,98031.28
2023-08-30T11:29:32.581Z,98037.34
2023-08-30T11:32:17.928Z,98028.97
2023-08-30T11:35:04.375Z,98035.00
2023-08-30T11:37:50.706Z,98034.56
2023-08-30T11:40:36.205Z,98022.47
2023-08-30T11:43:22.466Z,98014.88
2023-08-30T11:46:09.511Z,98016.88
2023-08-30T11:48:55.307Z,98008.97
2023-08-30T11:51:41.091Z,98015.81
2023-08-30T11:54:27.240Z,98010.88
2023-08-30T11:57:13.608Z,98017.03
2023-08-30T12:00:10.213Z,98009.16
2023-08-30T12:02:57.683Z,98010.25
2023-08-30T12:05:50.788Z,98002.03
2023-08-30T12:08:36.044Z,98004.06
2023-08-30T12:11:21.713Z,97995.88
2023-08-30T12:14:07.377Z,98001.72
2023-08-30T12:16:52.692Z,98002.53
2023-08-30T12:19:38.108Z,98000.19
2023-08-30T12:22:23.317Z,97995.22
2023-08-30T12:25:24.723Z,97996.47
2023-08-30T12:28:10.609Z,97991.84
2023-08-30T12:30:58.654Z,97993.38
2023-08-30T12:33:43.925Z,97993.38
2023-08-30T12:36:29.255Z,97992.59
2023-08-30T12:39:15.109Z,97990.13
2023-08-30T12:42:01.189Z,97988.59
2023-08-30T12:44:47.271Z,97985.81
2023-08-30T12:47:32.999Z,97987.78
2023-08-30T12:50:18.253Z,97978.50
2023-08-30T12:53:07.637Z,97979.28
2023-08-30T12:55:53.841Z,97983.59
2023-08-30T12:58:39.432Z,97976.78
2023-08-30T13:01:25.824Z,97974.78
2023-08-30T13:04:11.626Z,97972.28
2023-08-30T13:06:57.272Z,97976.16
2023-08-30T13:09:42.618Z,97969.81
2023-08-30T13:12:27.929Z,97961.16
2023-08-30T13:15:13.350Z,97965.78
2023-08-30T13:17:59.205Z,97965.63
2023-08-30T13:20:44.982Z,97960.03
2023-08-30T13:23:30.065Z,97958.50
2023-08-30T13:26:15.528Z,97960.66
2023-08-30T13:29:03.627Z,97959.09
2023-08-30T13:31:49.955Z,97959.72
2023-08-30T13:34:36.103Z,97949.81
2023-08-30T13:37:21.979Z,97945.16
2023-08-30T13:40:08.317Z,97948.75
2023-08-30T13:42:53.793Z,97946.06
2023-08-30T13:45:39.181Z,97949.16
2023-08-30T13:48:24.558Z,97939.09
2023-08-30T13:51:09.894Z,97941.09
2023-08-30T13:53:55.908Z,97930.13
2023-08-30T13:56:42.676Z,97929.19
2023-08-30T13:59:29.907Z,97938.63
2023-08-30T14:02:15.498Z,97931.03
2023-08-30T14:05:01.606Z,97926.22
2023-08-30T14:07:48.646Z,97926.72
2023-08-30T14:10:34.737Z,97932.28
2023-08-30T14:13:20.514Z,97936.13
2023-08-30T14:16:05.916Z,97929.00
2023-08-30T14:18:51.345Z,97928.69
2023-08-30T14:21:37.000Z,97927.47
2023-08-30T14:24:24.585Z,97930.41
2023-08-30T14:27:09.966Z,97927.16
2023-08-30T14:29:55.347Z,97927.63
2023-08-30T14:32:40.766Z,97936.31
2023-08-30T14:35:26.139Z,97930.72
2023-08-30T14:38:12.016Z,97925.91
2023-08-30T14:41:01.708Z,97929.00
2023-08-30T14:43:47.322Z,97931.78
2023-08-30T14:46:34.211Z,97929.00
2023-08-30T15:28:49.595Z,97937.41
2023-08-30T15:31:35.560Z,97931.84
2023-08-30T15:34:22.359Z,97929.34
2023-08-30T15:37:07.856Z,97928.13
2023-08-30T15:40:02.410Z,97945.16
2023-08-30T15:42:48.596Z,97943.28
2023-08-30T15:45:33.820Z,97939.72
2023-08-30T15:48:19.404Z,97942.97
2023-08-30T15:51:08.787Z,97941.75
2023-08-30T15:53:58.453Z,97941.75
2023-08-30T15:56:47.772Z,97939.88
2023-08-30T15:59:33.396Z,97942.38
2023-08-30T16:02:18.916Z,97943.63
2023-08-30T16:05:04.421Z,97946.41
2023-08-30T16:07:50.701Z,97944.88
2023-08-30T16:10:36.534Z,97942.09
2023-08-30T16:13:22.661Z,97939.31
2023-08-30T16:16:08.011Z,97937.75
2023-08-30T16:18:53.424Z,97943.31
2023-08-30T16:21:38.897Z,97934.50
2023-08-30T16:24:24.270Z,97935.44
2023-08-30T16:27:09.695Z,97938.69
2023-08-30T16:29:55.378Z,97931.56
2023-08-30T16:32:40.842Z,97928.78
2023-08-30T16:35:27.225Z,97933.13
2023-08-30T16:38:13.139Z,97941.19
2023-08-30T16:41:03.522Z,97938.09
2023-08-30T16:43:48.858Z,97933.28
2023-08-30T16:46:37.674Z,97933.59
2023-08-30T16:49:23.393Z,97930.34
2023-08-30T16:52:11.464Z,97930.66
2023-08-30T16:54:57.405Z,97928.47
2023-08-30T16:57:43.729Z,97928.47
2023-08-30T17:00:29.244Z,97933.13
2023-08-30T17:03:15.003Z,97927.06
2023-08-30T17:06:03.638Z,97928.16
2023-08-30T17:08:49.402Z,97941.59
2023-08-30T17:11:35.439Z,97940.84
2023-08-30T17:14:22.050Z,97940.38
2023-08-30T17:17:07.984Z,97935.56
2023-08-30T17:19:59.732Z,97935.88
2023-08-30T17:22:46.245Z,97935.38
2023-08-30T17:25:32.198Z,97943.28
2023-08-30T17:28:18.538Z,97937.72
2023-08-30T17:31:07.923Z,97939.72
2023-08-30T17:33:56.839Z,97948.56
2023-08-30T17:36:51.117Z,97951.66
2023-08-30T17:39:38.217Z,97953.97
2023-08-30T17:42:29.902Z,97959.41
2023-08-30T17:45:17.141Z,97959.41
2023-08-30T17:48:04.698Z,97953.66
2023-08-30T17:50:50.533Z,97950.72
2023-08-30T17:53:36.305Z,97952.72
2023-08-30T17:56:23.728Z,97947.44
2023-08-30T17:59:09.360Z,97949.47
2023-08-30T18:01:54.892Z,97953.03
2023-08-30T18:04:40.721Z,97955.03
2023-08-30T18:07:26.757Z,97955.19
2023-08-30T18:10:13.949Z,97961.28
2023-08-30T18:13:02.854Z,97960.19
2023-08-30T18:15:48.893Z,97965.47
2023-08-30T18:18:34.679Z,97956.31
2023-08-30T18:21:20.208Z,97960.03
2023-08-30T18:24:14.439Z,97963.28
2023-08-30T18:26:59.889Z,97955.88
2023-08-30T18:29:48.715Z,97969.97
2023-08-30T18:32:36.073Z,97966.28
2023-08-30T18:35:21.745Z,97965.69
2023-08-30T18:38:07.079Z,97967.53
2023-08-30T18:41:04.765Z,97975.59
2023-08-30T18:43:58.392Z,97973.44
2023-08-30T18:46:43.875Z,97974.06
2023-08-30T18:49:30.304Z,97977.78
2023-08-30T18:52:16.198Z,97975.13
2023-08-30T18:55:01.654Z,97974.81
2023-08-30T18:57:47.243Z,97974.97
2023-08-30T19:00:33.514Z,97974.66
2023-08-30T19:03:19.971Z,97977.13
2023-08-30T19:06:05.849Z,97976.06
2023-08-30T19:08:52.053Z,97977.00
2023-08-30T19:11:37.678Z,97970.34
2023-08-30T19:14:23.669Z,97978.41
2023-08-30T19:17:09.288Z,97974.81
2023-08-30T19:19:54.640Z,97978.09
2023-08-30T19:22:41.292Z,97982.88
2023-08-30T19:25:26.854Z,97976.53
2023-08-30T19:28:12.039Z,97985.81
2023-08-30T19:30:57.860Z,97977.16
2023-08-30T19:33:43.695Z,97975.31
2023-08-30T19:36:30.843Z,97978.53
2023-08-30T19:39:16.281Z,97977.47
2023-08-30T19:42:01.879Z,97981.97
2023-08-30T19:44:47.128Z,97975.75
2023-08-30T19:47:32.722Z,97980.56
2023-08-30T19:50:20.900Z,97985.81
2023-08-30T19:53:07.611Z,97978.69
2023-08-30T19:55:53.485Z,97986.72
2023-08-30T19:58:39.005Z,97985.63
2023-08-30T20:01:24.435Z,97986.41
2023-08-30T20:04:09.823Z,97987.66
2023-08-30T20:06:55.300Z,97987.03
2023-08-30T20:09:40.728Z,97977.59
2023-08-30T20:12:26.140Z,97976.06
2023-08-30T20:15:11.557Z,97978.53
2023-08-30T20:17:56.938Z,97979.75
2023-08-30T20:20:47.032Z,97979.75
2023-08-30T20:23:32.241Z,97977.75
2023-08-30T20:26:17.585Z,97975.88
2023-08-30T20:29:03.961Z,97976.03
2023-08-30T20:31:49.652Z,97973.25
2023-08-30T20:34:35.201Z,97978.03
2023-08-30T20:37:20.901Z,97967.41
2023-08-30T20:40:07.105Z,97962.28
2023-08-30T20:42:52.472Z,97969.38
2023-08-30T20:45:37.839Z,97959.94
2023-08-30T20:48:23.260Z,97965.97
2023-08-30T20:51:08.647Z,97962.72
2023-08-30T20:53:59.967Z,97967.22
2023-08-30T20:56:47.737Z,97964.44
2023-08-30T20:59:33.356Z,97965.69
2023-08-30T21:02:19.109Z,97958.53
2023-08-30T21:05:07.221Z,97965.34
2023-08-30T21:07:52.797Z,97974.91
2023-08-30T21:10:39.037Z,97973.38
2023-08-30T21:13:24.649Z,97978.94
2023-08-30T21:16:10.115Z,97972.59
2023-08-30T21:18:55.519Z,97979.38
2023-08-30T21:21:40.950Z,97974.28
2023-08-30T21:24:26.292Z,97981.41
2023-08-30T21:27:11.810Z,97979.84
2023-08-30T21:29:56.889Z,97979.06
2023-08-30T21:32:44.319Z,97977.53
2023-08-30T21:35:29.843Z,97977.53
2023-08-30T21:38:17.672Z,97982.31
2023-08-30T21:41:04.876Z,97973.94
2023-08-30T21:43:50.449Z,97971.34
2023-08-30T21:46:36.080Z,97967.00
2023-08-30T21:49:21.429Z,97966.53
2023-08-30T21:52:07.088Z,97972.09
2023-08-30T21:54:52.957Z,97970.25
2023-08-30T21:57:38.878Z,97965.13
2023-08-30T22:00:24.353Z,97973.03
2023-08-30T22:03:10.555Z,97970.69
2023-08-30T22:06:04.409Z,97970.69
2023-08-30T22:08:50.629Z,97970.69
2023-08-30T22:11:39.074Z,97968.69
2023-08-30T22:14:25.455Z,97962.03
2023-08-30T22:17:12.641Z,97959.72
2023-08-30T22:19:58.075Z,97964.50
2023-08-30T22:22:44.150Z,97966.53
2023-08-30T22:25:29.350Z,97964.50
2023-08-30T22:28:14.671Z,97962.22
2023-08-30T22:31:00.014Z,97959.44
2023-08-30T22:33:45.893Z,97960.63
2023-08-30T22:36:31.434Z,97954.75
2023-08-30T22:39:17.452Z,97961.88
2023-08-30T22:42:03.105Z,97964.66
2023-08-30T22:44:49.533Z,97957.53
2023-08-30T22:47:35.436Z,97958.31
2023-08-30T22:50:20.803Z,97956.78
2023-08-30T22:53:06.454Z,97973.91
2023-08-30T22:55:52.073Z,97964.34
2023-08-30T22:58:38.039Z,97955.69
2023-08-30T23:01:23.478Z,97947.03
2023-08-30T23:04:08.706Z,97942.69
2023-08-30T23:06:54.044Z,97945.03
2023-08-30T23:09:40.464Z,97947.03
2023-08-30T23:12:26.125Z,97945.34
2023-08-30T23:15:11.478Z,97948.88
2023-08-30T23:17:57.490Z,97937.94
2023-08-30T23:20:43.046Z,97936.38
2023-08-30T23:23:28.614Z,97929.59
2023-08-30T23:26:14.344Z,97928.78
2023-08-30T23:28:59.775Z,97924.47
2023-08-30T23:31:45.353Z,97930.03
2023-08-30T23:34:30.767Z,97930.03
2023-08-30T23:37:16.712Z,97928.47
2023-08-30T23:40:02.311Z,97926.94
2023-08-30T23:42:47.722Z,97930.16
2023-08-30T23:45:33.146Z,97932.94
2023-08-30T23:48:23.203Z,97928.94
2023-08-30T23:51:09.460Z,97934.97
2023-08-30T23:53:54.927Z,97932.63
2023-08-30T23:56:40.317Z,97933.44
2023-08-30T23:59:25.565Z,97942.97
